Flugplatz Landsberg Lech Air Base

Für Landsberg Lech Air Base sind keine METAR/TAF Berichte vorhanden.
Es werden die Flugwettermeldungen vom Flugplatz Lechfeld Air Base in 13 km Entfernung angezeigt.

Bericht für ETSL

vom 18.07. um 13:20 UTC

Wind 6 kt aus 50°

Sichtweite 9700 m

gering bewölkt in 3500 ft

aufgebrochene Bewölkung in 28000 ft

Temperatur 25°C

Taupunkt 16°C

Luftfeuchtigkeit 57%

Luftdruck 1022 hPa

ETSL 181320Z 05006KT 9999 FEW035 BKN280 25/16 Q1022 BLU+BLU+

Prognose für ETSL

vom 18.07. um 10:13 UTC

Zwischen 11:00 UTC und 20:00 UTC

Wind 8 kt aus 50°

Sichtweite 9700 m

keine signifikanten Wettererscheinungen

aufgelockert bewölkt in 4000 ft

aufgelockert bewölkt in 30000 ft

TAF ETSL 181013Z 1811/1820 05008KT 9999 NSW SCT040 SCT300
Impressum